Time;durP1;ratioP1;P1;durP2;ratioP2;P2;SDS_P1;SDS_P2;PMS_P1;PMS_P2;Temp;Humidity;BMP_temperature;BMP_pressure;BME280_temperature;BME280_humidity;BME280_pressure;Samples;Min_cycle;Max_cycle;Signal;HPM_P1;HPM_P2
2022/01/22 00:57:42;;;;;;;17.88;8.85;;;13.60;1715.20;;;;;;6266771;22;20868;-96
2022/01/22 01:00:14;;;;;;;16.55;7.97;;;13.60;1740.80;;;;;;6296024;22;20023;-96
2022/01/22 01:05:45;;;;;;;13.77;8.40;;;13.60;1740.80;;;;;;6312244;22;20015;-96
2022/01/22 01:08:15;;;;;;;12.55;5.75;;;13.60;1740.80;;;;;;6305441;22;20050;-96
2022/01/22 01:10:40;;;;;;;16.58;7.70;;;13.60;1740.80;;;;;;6279380;22;20064;-96
2022/01/22 01:13:06;;;;;;;12.65;6.15;;;13.60;1740.80;;;;;;6305875;22;20015;-96
2022/01/22 01:34:15;;;;;;;9.32;4.63;;;13.70;1715.20;;;;;;6316092;22;20018;-96
2022/01/22 01:36:43;;;;;;;11.43;5.15;;;13.60;1689.60;;;;;;6286264;22;20003;-96
2022/01/22 01:39:13;;;;;;;9.20;5.60;;;13.60;1689.60;;;;;;6302327;22;20010;-95
2022/01/22 01:44:14;;;;;;;11.82;5.35;;;13.60;1689.60;;;;;;6262814;22;20016;-95
2022/01/22 01:46:49;;;;;;;11.68;6.55;;;13.60;1715.20;;;;;;6228452;23;20082;-96
2022/01/22 01:49:16;;;;;;;15.35;7.05;;;13.60;1715.20;;;;;;6222137;23;20379;-94
2022/01/22 01:51:42;;;;;;;17.35;6.35;;;13.70;1715.20;;;;;;6222434;23;20387;-96
2022/01/22 01:59:39;;;;;;;13.18;5.35;;;13.60;1664.00;;;;;;6246373;23;20058;-96
2022/01/22 02:02:05;;;;;;;11.15;5.45;;;13.70;1689.60;;;;;;6218369;23;20000;-95
2022/01/22 02:04:31;;;;;;;11.98;6.50;;;13.60;1689.60;;;;;;6219072;23;20785;-96
2022/01/22 02:06:57;;;;;;;6.10;3.58;;;13.60;1689.60;;;;;;6218885;23;20033;-95
2022/01/22 02:09:23;;;;;;;14.77;6.82;;;13.60;1689.60;;;;;;6219133;23;20000;-94
2022/01/22 02:12:00;;;;;;;12.40;7.30;;;13.70;1689.60;;;;;;6218548;23;20466;-94
2022/01/22 02:25:18;;;;;;;14.98;6.75;;;13.70;1689.60;;;;;;6247247;23;19906;-94
2022/01/22 02:27:43;;;;;;;14.40;5.90;;;38.40;1689.60;;;;;;6229283;22;19984;-96
2022/01/22 02:30:17;;;;;;;10.13;5.20;;;13.70;1689.60;;;;;;6247203;22;19988;-95
2022/01/22 02:35:29;;;;;;;9.05;5.10;;;38.50;1715.20;;;;;;6255771;23;20031;-95
2022/01/22 02:38:02;;;;;;;16.20;5.22;;;38.50;1715.20;;;;;;6227519;23;20000;-95
2022/01/22 02:40:33;;;;;;;14.88;7.78;;;38.50;1715.20;;;;;;6221502;23;20000;-94
2022/01/22 02:43:00;;;;;;;12.65;6.30;;;38.50;1715.20;;;;;;6226121;23;20023;-95
2022/01/22 02:45:26;;;;;;;15.68;6.65;;;38.50;1740.80;;;;;;6248096;22;20004;-95
2022/01/22 02:47:53;;;;;;;21.25;8.80;;;13.70;1740.80;;;;;;6230350;23;20083;-95
2022/01/22 02:50:20;;;;;;;17.08;7.35;;;38.50;1740.80;;;;;;6221265;23;19996;-94
2022/01/22 02:52:47;;;;;;;13.50;7.00;;;38.40;1740.80;;;;;;6220611;23;20175;-95
2022/01/22 02:55:14;;;;;;;10.88;5.35;;;38.40;1740.80;;;;;;6221008;23;20462;-95
2022/01/22 02:57:43;;;;;;;14.38;7.30;;;13.70;1740.80;;;;;;6221346;23;20001;-94
2022/01/22 03:00:13;;;;;;;13.57;5.43;;;13.70;1740.80;;;;;;6226379;23;20031;-94
2022/01/22 03:02:39;;;;;;;11.90;5.70;;;13.70;1740.80;;;;;;6232355;23;20442;-95
2022/01/22 03:05:07;;;;;;;6.72;4.35;;;13.70;1740.80;;;;;;6221308;23;20087;-94
2022/01/22 03:07:34;;;;;;;11.38;5.68;;;13.70;1740.80;;;;;;6220564;23;20413;-94
2022/01/22 03:10:02;;;;;;;17.48;8.70;;;13.70;1740.80;;;;;;6220643;23;20082;-95
2022/01/22 03:27:13;;;;;;;12.75;6.63;;;13.70;1766.40;;;;;;6246693;23;20083;-95
2022/01/22 03:28:51;;;;;;;;;;;38.40;1740.80;;;;;;6246998;23;20011;-95
2022/01/22 03:31:17;;;;;;;23.05;6.10;;;38.50;1766.40;;;;;;6220139;23;19906;-95
2022/01/22 03:33:43;;;;;;;12.13;5.45;;;38.50;1766.40;;;;;;6236446;22;20000;-95
2022/01/22 03:36:09;;;;;;;11.60;6.93;;;38.40;1792.00;;;;;;6234078;23;20083;-95
2022/01/22 03:38:35;;;;;;;8.68;4.82;;;38.40;1817.60;;;;;;6220732;23;20011;-95
2022/01/22 03:41:01;;;;;;;17.60;6.63;;;38.40;1817.60;;;;;;6220210;23;20104;-96
2022/01/22 03:43:27;;;;;;;9.30;5.55;;;38.40;1817.60;;;;;;6219833;23;20095;-95
2022/01/22 03:45:53;;;;;;;9.40;4.68;;;38.40;1817.60;;;;;;6220060;23;20031;-95
2022/01/22 03:48:18;;;;;;;11.38;5.85;;;38.40;1792.00;;;;;;6227516;23;20150;-96
2022/01/22 03:50:44;;;;;;;11.63;5.68;;;13.70;1792.00;;;;;;6240400;23;20011;-96
2022/01/22 03:53:10;;;;;;;7.75;4.68;;;13.70;1766.40;;;;;;6225554;23;20009;-94
2022/01/22 03:55:49;;;;;;;13.57;6.18;;;13.70;1766.40;;;;;;6228331;23;20008;-95
2022/01/22 03:58:15;;;;;;;14.25;6.10;;;13.70;1766.40;;;;;;6229033;23;20076;-94
2022/01/22 04:00:41;;;;;;;9.18;6.22;;;13.70;1766.40;;;;;;6234837;23;20000;-96
2022/01/22 04:06:07;;;;;;;13.35;7.07;;;38.40;1766.40;;;;;;6247029;23;20027;-94
2022/01/22 04:08:30;;;;;;;14.02;6.18;;;38.40;1766.40;;;;;;6246025;23;20003;-95
2022/01/22 04:10:56;;;;;;;21.02;5.53;;;38.40;1792.00;;;;;;6220602;23;20336;-95
2022/01/22 04:13:29;;;;;;;12.68;5.68;;;13.70;1766.40;;;;;;6219632;23;20451;-96
2022/01/22 04:15:54;;;;;;;14.35;7.60;;;13.70;1792.00;;;;;;6219602;23;20001;-96
2022/01/22 04:26:53;;;;;;;12.48;6.95;;;13.70;1817.60;;;;;;6246015;23;19905;-95
2022/01/22 04:29:20;;;;;;;18.13;8.02;;;38.40;1817.60;;;;;;6220067;23;20000;-95
2022/01/22 04:31:46;;;;;;;14.02;7.65;;;38.40;1843.20;;;;;;6220908;23;20706;-95
2022/01/22 04:34:30;;;;;;;17.08;7.35;;;38.50;1843.20;;;;;;6219448;23;20039;-95
2022/01/22 04:36:55;;;;;;;12.93;6.15;;;38.50;1868.80;;;;;;6219973;23;20428;-96
2022/01/22 04:39:23;;;;;;;13.30;6.10;;;38.40;1868.80;;;;;;6222296;23;19996;-96
2022/01/22 04:41:51;;;;;;;13.65;6.60;;;38.40;1894.40;;;;;;6233320;23;20000;-96
2022/01/22 04:44:17;;;;;;;14.55;5.05;;;38.40;1920.00;;;;;;6233426;23;20040;-95
2022/01/22 04:52:27;;;;;;;16.98;7.18;;;38.60;1996.80;;;;;;6247936;23;20308;-96
2022/01/22 04:55:01;;;;;;;13.48;6.60;;;38.70;2022.40;;;;;;6263508;22;20015;-96
2022/01/22 04:57:32;;;;;;;16.95;5.28;;;38.80;2022.40;;;;;;6228573;23;20004;-95
2022/01/22 04:59:58;;;;;;;10.15;6.80;;;38.80;1996.80;;;;;;6222230;23;20024;-95
2022/01/22 05:02:24;;;;;;;15.95;7.32;;;38.90;1971.20;;;;;;6226830;23;20446;-95
2022/01/22 05:04:50;;;;;;;23.02;7.57;;;38.90;1971.20;;;;;;6219696;23;20000;-96
2022/01/22 05:07:16;;;;;;;14.63;7.93;;;39.00;1971.20;;;;;;6219091;23;20004;-96
2022/01/22 05:09:42;;;;;;;14.60;6.93;;;39.00;1971.20;;;;;;6219229;23;20083;-96
2022/01/22 05:12:08;;;;;;;19.00;8.45;;;39.00;1971.20;;;;;;6218938;23;20012;-96
2022/01/22 05:14:34;;;;;;;12.93;6.72;;;39.10;1996.80;;;;;;6219365;23;20001;-96
2022/01/22 05:17:03;;;;;;;23.85;9.75;;;39.10;1971.20;;;;;;6219438;23;20103;-96
2022/01/22 05:19:47;;;;;;;16.42;9.30;;;39.20;1996.80;;;;;;6219724;23;20107;-96
2022/01/22 05:24:53;;;;;;;14.00;8.38;;;39.20;1996.80;;;;;;6258600;23;20050;-95
2022/01/22 05:27:38;;;;;;;14.80;8.30;;;39.20;1996.80;;;;;;6226172;23;20016;-96
2022/01/22 05:30:25;;;;;;;15.75;6.80;;;39.20;1971.20;;;;;;6219915;23;20008;-96
2022/01/22 05:38:04;;;;;;;17.40;8.23;;;39.20;1996.80;;;;;;6245623;23;20035;-96
2022/01/22 05:40:30;;;;;;;17.50;6.60;;;39.30;1996.80;;;;;;6219355;23;20008;-96
2022/01/22 05:42:56;;;;;;;19.65;7.72;;;39.30;1996.80;;;;;;6222062;23;20019;-94
2022/01/22 05:45:22;;;;;;;17.00;9.10;;;39.30;1996.80;;;;;;6243490;23;19990;-95
2022/01/22 05:47:48;;;;;;;22.08;9.93;;;39.30;1996.80;;;;;;6226787;23;20087;-96
2022/01/22 05:50:28;;;;;;;23.13;10.60;;;39.30;2022.40;;;;;;6218978;23;20027;-95
2022/01/22 05:53:01;;;;;;;18.98;8.32;;;39.30;2022.40;;;;;;6219197;23;20016;-96
2022/01/22 05:59:36;;;;;;;19.70;9.27;;;39.30;1996.80;;;;;;6221494;23;20336;-96
2022/01/22 06:00:59;;;;;;;;;;;39.30;2022.40;;;;;;6264840;23;20050;-96
2022/01/22 06:03:25;;;;;;;16.00;8.90;;;39.30;2022.40;;;;;;6224634;23;19899;-96
2022/01/22 06:05:51;;;;;;;18.73;8.60;;;39.30;1996.80;;;;;;6224430;23;20031;-96
2022/01/22 06:08:17;;;;;;;22.35;9.40;;;39.30;2022.40;;;;;;6230329;23;20000;-96
2022/01/22 06:10:46;;;;;;;23.25;11.50;;;39.30;2022.40;;;;;;6227344;23;20004;-96
2022/01/22 06:13:16;;;;;;;23.08;13.05;;;64.00;2048.00;;;;;;6224026;23;20016;-96
2022/01/22 06:15:42;;;;;;;17.95;10.80;;;39.30;2022.40;;;;;;6221409;23;19996;-96
2022/01/22 06:18:07;;;;;;;25.48;11.55;;;39.30;2022.40;;;;;;6221097;23;20004;-96
2022/01/22 06:20:33;;;;;;;19.55;8.18;;;39.20;1996.80;;;;;;6221655;23;20118;-96
2022/01/22 06:23:00;;;;;;;16.95;8.18;;;39.10;1996.80;;;;;;6221436;23;20004;-95
2022/01/22 06:25:26;;;;;;;18.65;9.70;;;39.10;1996.80;;;;;;6221461;23;20000;-94
2022/01/22 06:27:51;;;;;;;20.38;8.82;;;39.10;1996.80;;;;;;6221948;23;20003;-95
2022/01/22 06:30:17;;;;;;;22.08;11.15;;;39.10;1996.80;;;;;;6230482;23;19996;-96
2022/01/22 06:32:43;;;;;;;16.90;8.52;;;39.10;1996.80;;;;;;6231331;23;20019;-96
2022/01/22 06:35:09;;;;;;;16.98;8.95;;;39.10;1971.20;;;;;;6222652;23;20011;-96
2022/01/22 06:37:34;;;;;;;19.50;9.00;;;39.00;1945.60;;;;;;6220989;23;20423;-96
2022/01/22 06:42:35;;;;;;;16.80;8.68;;;38.90;1920.00;;;;;;6247339;23;20012;-96
2022/01/22 06:45:03;;;;;;;19.15;10.60;;;38.80;1920.00;;;;;;6220481;23;20000;-96
2022/01/22 06:47:29;;;;;;;11.93;6.88;;;38.80;1920.00;;;;;;6227042;23;20004;-96
2022/01/22 06:49:56;;;;;;;16.02;9.10;;;38.80;1920.00;;;;;;6237881;23;20004;-96
2022/01/22 06:52:22;;;;;;;24.90;10.70;;;38.70;1894.40;;;;;;6226471;23;20442;-96
2022/01/22 06:54:48;;;;;;;32.30;12.50;;;38.60;1894.40;;;;;;6221231;23;20340;-96
2022/01/22 06:57:14;;;;;;;32.80;14.63;;;38.50;1868.80;;;;;;6220438;23;20087;-96
2022/01/22 06:59:41;;;;;;;36.47;18.40;;;38.40;1868.80;;;;;;6221257;23;20428;-96
2022/01/22 07:02:07;;;;;;;17.45;9.30;;;13.70;1843.20;;;;;;6229577;23;20007;-96
2022/01/22 07:04:37;;;;;;;38.17;16.98;;;13.60;1817.60;;;;;;6239851;23;20003;-96
2022/01/22 07:07:12;;;;;;;39.88;19.08;;;13.50;1817.60;;;;;;6229757;23;20004;-94
2022/01/22 07:09:38;;;;;;;63.63;31.00;;;13.50;1792.00;;;;;;6220920;23;20001;-94
2022/01/22 07:12:05;;;;;;;31.83;13.45;;;13.40;1792.00;;;;;;6229852;23;20016;-94
2022/01/22 07:14:31;;;;;;;47.35;20.60;;;13.40;1792.00;;;;;;6231299;23;20000;-95
2022/01/22 07:16:57;;;;;;;8.05;5.95;;;13.30;1766.40;;;;;;6230833;23;20091;-93
2022/01/22 07:19:23;;;;;;;16.52;8.02;;;13.30;1766.40;;;;;;6222009;23;20003;-94
2022/01/22 07:22:01;;;;;;;16.92;7.90;;;13.30;1740.80;;;;;;6221203;23;20007;-94
2022/01/22 07:24:32;;;;;;;19.65;9.25;;;13.20;1766.40;;;;;;6222387;23;20000;-94
2022/01/22 07:26:58;;;;;;;27.48;10.80;;;13.00;1740.80;;;;;;6222258;23;19996;-95
2022/01/22 07:29:24;;;;;;;16.55;9.70;;;0.10;1715.20;;;;;;6221732;23;20056;-95
2022/01/22 07:31:52;;;;;;;14.05;8.30;;;0.00;1689.60;;;;;;6223309;23;20000;-94
2022/01/22 07:34:17;;;;;;;13.50;7.68;;;12.90;1715.20;;;;;;6224151;23;20005;-94
2022/01/22 07:36:43;;;;;;;16.45;8.75;;;12.90;1689.60;;;;;;6221654;23;20011;-94
2022/01/22 07:39:09;;;;;;;13.32;6.50;;;12.90;1689.60;;;;;;6220970;23;20332;-94
2022/01/22 07:41:36;;;;;;;18.23;7.45;;;12.90;1715.20;;;;;;6221049;23;20031;-95
2022/01/22 07:44:02;;;;;;;18.83;8.00;;;0.00;1715.20;;;;;;6219868;23;20597;-95
2022/01/22 07:46:28;;;;;;;11.85;7.10;;;0.10;1689.60;;;;;;6220808;23;19996;-94
2022/01/22 07:48:54;;;;;;;16.25;5.93;;;0.20;1664.00;;;;;;6220326;23;19996;-93
2022/01/22 07:51:20;;;;;;;16.58;6.60;;;0.30;1638.40;;;;;;6221488;23;20007;-93
2022/01/22 07:53:45;;;;;;;16.13;7.57;;;0.30;1638.40;;;;;;6222296;23;20023;-93
2022/01/22 07:56:12;;;;;;;17.17;7.25;;;0.30;1638.40;;;;;;6222405;23;20034;-93
2022/01/22 07:58:38;;;;;;;27.52;11.02;;;0.40;1638.40;;;;;;6246901;23;20004;-93
2022/01/22 08:01:04;;;;;;;50.97;24.42;;;0.70;1612.80;;;;;;6219617;23;20131;-94
2022/01/22 08:03:30;;;;;;;52.05;23.48;;;25.60;1587.20;;;;;;6220533;23;20004;-93
2022/01/22 08:05:56;;;;;;;19.30;10.57;;;25.60;1587.20;;;;;;6220871;23;20020;-92
2022/01/22 08:08:22;;;;;;;9.82;5.93;;;0.70;1587.20;;;;;;6234912;23;20031;-95
2022/01/22 08:10:48;;;;;;;26.27;12.75;;;0.30;1612.80;;;;;;6235343;23;20067;-95
2022/01/22 08:13:18;;;;;;;32.90;10.95;;;0.50;1612.80;;;;;;6236527;23;20095;-93
2022/01/22 08:15:44;;;;;;;21.50;8.02;;;0.70;1587.20;;;;;;6225735;23;19996;-95
2022/01/22 08:18:10;;;;;;;13.27;7.88;;;0.90;1561.60;;;;;;6240470;23;20007;-94
2022/01/22 08:20:36;;;;;;;23.98;12.65;;;25.60;1536.00;;;;;;6241777;23;20008;-94
2022/01/22 08:23:02;;;;;;;17.98;7.70;;;25.70;1536.00;;;;;;6231832;23;20004;-93
2022/01/22 08:25:30;;;;;;;18.45;8.43;;;;;;;;;;6227607;23;20004;-94
2022/01/22 08:30:35;;;;;;;24.52;12.55;;;;;;;;;;6249446;23;20000;-94
2022/01/22 08:35:54;;;;;;;10.00;5.78;;;51.30;1510.40;;;;;;6246926;23;20102;-95
2022/01/22 08:38:38;;;;;;;16.67;8.32;;;26.50;1459.20;;;;;;6220343;23;20005;-94
2022/01/22 08:41:04;;;;;;;13.77;8.20;;;51.20;1459.20;;;;;;6221697;23;20000;-94
2022/01/22 08:43:30;;;;;;;15.25;7.63;;;51.30;1459.20;;;;;;6220610;23;20016;-94
2022/01/22 08:45:55;;;;;;;14.00;7.65;;;51.30;1459.20;;;;;;6220617;23;20000;-94
2022/01/22 08:48:23;;;;;;;25.95;8.73;;;51.20;1484.80;;;;;;6220360;23;20032;-96
2022/01/22 08:50:49;;;;;;;15.95;9.25;;;51.20;1484.80;;;;;;6224709;23;20005;-93
2022/01/22 08:53:15;;;;;;;16.63;8.88;;;51.20;1459.20;;;;;;6223077;23;20091;-94
2022/01/22 08:55:40;;;;;;;20.77;11.85;;;26.40;1433.60;;;;;;6221487;23;19996;-94
2022/01/22 08:58:08;;;;;;;30.58;14.07;;;26.40;1459.20;;;;;;6229147;23;20064;-94
2022/01/22 09:00:33;;;;;;;35.30;18.63;;;26.40;1459.20;;;;;;6241701;23;20083;-94
2022/01/22 09:02:59;;;;;;;34.13;18.65;;;26.20;1459.20;;;;;;6229729;23;20000;-94
2022/01/22 09:05:32;;;;;;;26.55;14.32;;;26.00;1459.20;;;;;;6234085;23;20007;-95
2022/01/22 09:07:58;;;;;;;24.58;13.52;;;25.80;1459.20;;;;;;6221923;23;20027;-94
2022/01/22 09:10:24;;;;;;;20.60;11.52;;;25.80;1484.80;;;;;;6222211;23;20447;-94
2022/01/22 09:12:50;;;;;;;17.58;9.63;;;25.80;1484.80;;;;;;6226469;23;20008;-94
2022/01/22 09:15:15;;;;;;;31.58;14.50;;;25.70;1484.80;;;;;;6224568;23;20000;-94
2022/01/22 09:17:47;;;;;;;22.15;11.80;;;25.90;1484.80;;;;;;6225162;23;20032;-95
2022/01/22 09:20:19;;;;;;;26.08;11.77;;;25.90;1459.20;;;;;;6220236;23;20005;-94
2022/01/22 09:22:45;;;;;;;13.40;6.35;;;25.90;1459.20;;;;;;6229821;23;20004;-93
2022/01/22 09:25:15;;;;;;;17.02;9.27;;;26.20;1408.00;;;;;;6234535;23;20023;-94
2022/01/22 09:27:41;;;;;;;20.73;9.13;;;26.20;1408.00;;;;;;6225631;23;20000;-95
2022/01/22 09:30:07;;;;;;;19.33;10.43;;;26.10;1433.60;;;;;;6222493;23;20012;-96
2022/01/22 09:32:33;;;;;;;20.35;10.90;;;26.10;1433.60;;;;;;6220608;23;20153;-94
2022/01/22 09:34:58;;;;;;;23.30;12.65;;;26.10;1459.20;;;;;;6223611;23;20351;-94
2022/01/22 09:37:25;;;;;;;45.65;23.17;;;26.20;1459.20;;;;;;6233682;23;20043;-95
2022/01/22 09:39:51;;;;;;;23.20;12.20;;;26.30;1459.20;;;;;;6232851;23;20000;-93
2022/01/22 09:42:17;;;;;;;10.88;6.30;;;26.30;1459.20;;;;;;6231459;23;20050;-93
2022/01/22 09:44:43;;;;;;;17.67;9.65;;;26.10;1484.80;;;;;;6220849;23;20088;-92
2022/01/22 09:47:11;;;;;;;21.33;11.68;;;26.20;1459.20;;;;;;6221486;23;20090;-94
2022/01/22 09:49:39;;;;;;;18.02;10.57;;;26.10;1484.80;;;;;;6220882;23;20000;-94
2022/01/22 09:52:05;;;;;;;38.00;20.08;;;25.90;1484.80;;;;;;6220185;23;20063;-94
2022/01/22 09:54:30;;;;;;;21.25;10.90;;;26.10;1484.80;;;;;;6222132;23;20008;-95
2022/01/22 09:57:02;;;;;;;19.25;10.05;;;26.10;1510.40;;;;;;6220737;23;20011;-96
2022/01/22 09:59:27;;;;;;;22.95;11.45;;;26.10;1510.40;;;;;;6220075;23;20000;-95
2022/01/22 10:02:06;;;;;;;19.30;10.30;;;26.00;1536.00;;;;;;6234863;23;20023;-94
2022/01/22 10:04:37;;;;;;;17.77;8.48;;;26.00;1561.60;;;;;;6242396;23;20004;-94
2022/01/22 10:07:04;;;;;;;19.23;9.80;;;26.10;1561.60;;;;;;6227834;23;20004;-94
2022/01/22 10:09:46;;;;;;;27.17;13.25;;;26.00;1587.20;;;;;;6222076;23;19997;-93
2022/01/22 10:12:16;;;;;;;40.72;16.70;;;26.10;1587.20;;;;;;6219708;23;20036;-96
2022/01/22 10:15:11;;;;;;;37.00;18.08;;;26.00;1612.80;;;;;;6220212;23;19996;-96
2022/01/22 10:17:51;;;;;;;38.42;16.95;;;26.10;1612.80;;;;;;6229333;23;20004;-93
2022/01/22 10:20:29;;;;;;;31.17;16.33;;;26.20;1587.20;;;;;;6224617;23;20442;-95
2022/01/22 10:22:58;;;;;;;23.77;11.20;;;26.40;1561.60;;;;;;6220332;23;20009;-95
2022/01/22 10:25:33;;;;;;;37.65;21.55;;;26.40;1536.00;;;;;;6222365;23;20000;-95
2022/01/22 10:28:09;;;;;;;14.70;8.70;;;26.40;1536.00;;;;;;6220687;23;20386;-95
2022/01/22 10:30:40;;;;;;;16.08;6.47;;;26.10;1561.60;;;;;;6219350;23;20060;-95
2022/01/22 10:33:19;;;;;;;23.60;8.43;;;25.90;1612.80;;;;;;6219663;23;20015;-96
2022/01/22 10:35:46;;;;;;;14.15;7.15;;;25.90;1638.40;;;;;;6219495;23;20047;-96
2022/01/22 10:38:12;;;;;;;24.95;13.63;;;0.90;1715.20;;;;;;6224326;23;20046;-96
2022/01/22 10:40:40;;;;;;;22.55;13.02;;;0.80;1766.40;;;;;;6220442;23;20001;-96
2022/01/22 10:43:16;;;;;;;29.25;13.25;;;0.60;1868.80;;;;;;6221178;23;20079;-94
2022/01/22 10:46:14;;;;;;;22.80;12.50;;;0.80;1843.20;;;;;;6221515;23;20007;-94
2022/01/22 10:49:08;;;;;;;21.65;10.80;;;0.80;1920.00;;;;;;6222691;23;20053;-96
2022/01/22 10:51:59;;;;;;;23.45;12.70;;;25.60;1894.40;;;;;;6210556;23;20004;-96
2022/01/22 10:54:28;;;;;;;18.77;10.35;;;0.80;2022.40;;;;;;6223428;23;20019;-96
2022/01/22 10:57:08;;;;;;;10.52;5.22;;;0.70;2022.40;;;;;;6228519;23;20007;-93
2022/01/22 10:59:33;;;;;;;15.18;8.40;;;0.40;2150.40;;;;;;6237164;23;20000;-95
2022/01/22 11:02:00;;;;;;;18.50;11.18;;;0.40;2201.60;;;;;;6244462;23;20011;-93
2022/01/22 11:04:34;;;;;;;19.13;10.07;;;0.30;2201.60;;;;;;6223622;23;20000;-94
2022/01/22 11:07:09;;;;;;;31.08;16.58;;;0.20;2201.60;;;;;;6226402;23;20004;-94
2022/01/22 11:09:35;;;;;;;20.30;12.20;;;0.20;2201.60;;;;;;6243306;23;20015;-95
2022/01/22 11:12:04;;;;;;;21.15;11.43;;;0.10;2201.60;;;;;;6224545;23;20280;-95
2022/01/22 11:14:32;;;;;;;19.50;11.65;;;0.30;2201.60;;;;;;6221693;23;20020;-95
2022/01/22 11:16:59;;;;;;;34.92;17.95;;;0.30;2201.60;;;;;;6231630;23;20000;-95
2022/01/22 11:19:32;;;;;;;30.90;14.70;;;0.20;2201.60;;;;;;6237357;23;20000;-95
2022/01/22 11:22:02;;;;;;;22.67;12.48;;;0.10;2201.60;;;;;;6247188;23;20004;-96
2022/01/22 11:24:28;;;;;;;24.88;13.65;;;0.20;2201.60;;;;;;6237412;23;20000;-95
2022/01/22 11:26:59;;;;;;;28.88;14.18;;;0.10;2201.60;;;;;;6223490;23;20000;-93
2022/01/22 11:29:29;;;;;;;31.67;14.57;;;0.00;2201.60;;;;;;6221647;23;20001;-95
2022/01/22 11:31:56;;;;;;;24.58;14.38;;;12.90;2201.60;;;;;;6220773;23;20034;-96
2022/01/22 11:34:25;;;;;;;80.60;36.65;;;12.90;2201.60;;;;;;6221229;23;20454;-96
2022/01/22 11:37:21;;;;;;;35.80;17.85;;;13.00;2201.60;;;;;;6220560;23;19996;-94
2022/01/22 11:39:47;;;;;;;18.17;12.23;;;13.20;2201.60;;;;;;6220474;23;19996;-94
2022/01/22 11:42:14;;;;;;;30.17;16.63;;;13.30;2201.60;;;;;;6220444;23;20078;-95
2022/01/22 11:45:01;;;;;;;56.80;31.05;;;13.30;2201.60;;;;;;6231009;23;20027;-96
2022/01/22 11:47:27;;;;;;;51.33;28.02;;;13.30;2201.60;;;;;;6236819;23;20004;-96
2022/01/22 11:50:07;;;;;;;29.80;18.40;;;13.30;2201.60;;;;;;6226737;23;20005;-96
2022/01/22 11:52:42;;;;;;;42.30;24.63;;;13.30;2201.60;;;;;;6222690;23;20023;-95
2022/01/22 11:55:15;;;;;;;33.50;17.80;;;13.20;2201.60;;;;;;6221815;23;20075;-96
2022/01/22 11:57:44;;;;;;;48.57;25.47;;;13.30;2201.60;;;;;;6224234;23;20000;-94
2022/01/22 12:00:26;;;;;;;25.08;14.25;;;13.10;2201.60;;;;;;6221078;23;19996;-96
2022/01/22 12:03:11;;;;;;;21.50;12.93;;;13.10;2201.60;;;;;;6221698;23;20099;-96
2022/01/22 12:05:56;;;;;;;41.17;21.88;;;13.20;2201.60;;;;;;6222476;23;20004;-96
2022/01/22 12:08:22;;;;;;;30.65;18.08;;;12.90;2201.60;;;;;;6227042;23;20034;-96
2022/01/22 12:16:38;;;;;;;17.17;9.38;;;13.10;2201.60;;;;;;6257576;23;20011;-96
2022/01/22 12:19:08;;;;;;;23.52;13.98;;;13.30;2201.60;;;;;;6219838;23;20009;-96
2022/01/22 12:21:37;;;;;;;17.40;10.60;;;13.20;2201.60;;;;;;6222906;23;20000;-96
2022/01/22 12:24:08;;;;;;;20.33;12.52;;;13.40;2201.60;;;;;;6233431;23;20016;-95
2022/01/22 12:27:15;;;;;;;21.95;10.88;;;13.40;2201.60;;;;;;6246910;22;19992;-96
2022/01/22 12:37:29;;;;;;;31.10;12.88;;;13.40;2201.60;;;;;;6245006;22;20022;-96
2022/01/22 12:39:56;;;;;;;28.30;13.20;;;13.40;2201.60;;;;;;6197541;23;20005;-96
2022/01/22 12:42:45;;;;;;;47.53;18.23;;;13.40;2201.60;;;;;;6199185;23;20004;-96
2022/01/22 12:45:15;;;;;;;40.60;20.38;;;13.30;2201.60;;;;;;6191610;23;20007;-96
2022/01/22 12:47:48;;;;;;;37.92;19.25;;;13.30;2201.60;;;;;;6180555;23;20005;-96
2022/01/22 12:56:49;;;;;;;39.40;24.25;;;13.20;2201.60;;;;;;6234305;22;20021;-96
2022/01/22 12:59:11;;;;;;;43.88;26.52;;;13.10;2201.60;;;;;;6218433;23;19996;-96
2022/01/22 13:01:43;;;;;;;57.03;31.95;;;13.10;2201.60;;;;;;6190997;23;20087;-96
2022/01/22 13:04:09;;;;;;;51.78;28.83;;;13.00;2201.60;;;;;;6190856;23;20004;-95
2022/01/22 13:06:45;;;;;;;35.22;19.70;;;12.90;2201.60;;;;;;6191180;23;20004;-95
2022/01/22 13:09:13;;;;;;;48.83;26.52;;;13.00;2201.60;;;;;;6191495;23;20008;-95
2022/01/22 13:11:48;;;;;;;44.42;25.30;;;13.00;2201.60;;;;;;6206984;23;20059;-96
2022/01/22 13:14:28;;;;;;;48.10;25.88;;;13.00;2201.60;;;;;;6209491;23;20114;-95
2022/01/22 13:16:56;;;;;;;41.97;20.70;;;12.90;2201.60;;;;;;6196728;23;20007;-95
2022/01/22 13:19:23;;;;;;;29.65;18.00;;;13.10;2201.60;;;;;;6206670;23;20019;-96
2022/01/22 13:21:55;;;;;;;58.55;31.77;;;13.00;2201.60;;;;;;6194641;23;20428;-96
2022/01/22 13:24:23;;;;;;;49.95;25.92;;;12.90;2201.60;;;;;;6192020;23;20059;-95
2022/01/22 13:27:02;;;;;;;54.33;28.25;;;12.90;2201.60;;;;;;6193167;23;20001;-95
2022/01/22 13:29:33;;;;;;;34.97;18.63;;;12.90;2201.60;;;;;;6208982;23;20048;-96
2022/01/22 13:32:31;;;;;;;45.30;25.63;;;13.00;2201.60;;;;;;6215501;23;20044;-96
2022/01/22 14:13:12;;;;;;;18.63;10.10;;;0.00;2201.60;;;;;;6244623;22;20267;-95
2022/01/22 14:15:45;;;;;;;19.90;12.23;;;0.10;2201.60;;;;;;6185227;23;20040;-95
2022/01/22 14:18:22;;;;;;;21.58;11.63;;;0.20;2201.60;;;;;;6186310;23;20079;-95
2022/01/22 14:21:18;;;;;;;19.13;11.77;;;0.30;2201.60;;;;;;6185753;23;20411;-96
2022/01/22 14:23:52;;;;;;;18.23;10.95;;;0.50;2201.60;;;;;;6186517;23;20071;-95
2022/01/22 14:26:34;;;;;;;16.63;13.27;;;0.50;2201.60;;;;;;6187746;23;20456;-95
2022/01/22 14:29:07;;;;;;;19.13;12.93;;;0.40;2201.60;;;;;;6186739;23;20309;-95
2022/01/22 14:31:35;;;;;;;18.80;11.40;;;0.40;2201.60;;;;;;6186809;23;20012;-94
2022/01/22 14:34:06;;;;;;;13.85;11.43;;;0.40;2201.60;;;;;;6198847;23;20286;-94
2022/01/22 14:36:40;;;;;;;20.92;13.27;;;0.40;2201.60;;;;;;6193971;23;20015;-94
2022/01/22 14:39:16;;;;;;;11.07;8.75;;;0.50;2201.60;;;;;;6187147;23;20064;-96
2022/01/22 14:44:52;;;;;;;19.75;10.52;;;0.50;2201.60;;;;;;6198414;23;20008;-95
2022/01/22 14:47:21;;;;;;;11.48;7.40;;;0.50;2201.60;;;;;;6188671;23;20036;-96
2022/01/22 14:49:55;;;;;;;16.10;8.52;;;0.50;2201.60;;;;;;6212357;23;20005;-96
2022/01/22 14:52:23;;;;;;;19.73;13.63;;;0.40;2201.60;;;;;;6211907;23;20409;-95
2022/01/22 14:54:50;;;;;;;16.45;10.93;;;0.50;2201.60;;;;;;6187286;23;20063;-93
2022/01/22 14:57:21;;;;;;;13.35;9.82;;;0.50;2201.60;;;;;;6196114;23;20006;-93
2022/01/22 14:59:47;;;;;;;9.98;7.45;;;0.50;2201.60;;;;;;6220864;23;20012;-96
2022/01/22 15:02:14;;;;;;;5.43;4.20;;;0.20;2201.60;;;;;;6214400;23;20001;-95
2022/01/22 15:04:40;;;;;;;11.10;6.20;;;0.00;2201.60;;;;;;6217741;23;20028;-94
2022/01/22 15:07:09;;;;;;;11.55;7.80;;;12.90;2201.60;;;;;;6227381;23;20004;-95
2022/01/22 15:09:39;;;;;;;13.32;7.75;;;0.00;2201.60;;;;;;6213438;23;20008;-96
2022/01/22 15:12:07;;;;;;;18.38;10.52;;;0.00;2201.60;;;;;;6211929;23;20001;-96
2022/01/22 15:14:33;;;;;;;22.00;9.32;;;0.10;2201.60;;;;;;6202354;23;20040;-96
2022/01/22 15:17:54;;;;;;;13.55;8.75;;;0.10;2201.60;;;;;;6223704;23;20008;-96
2022/01/22 15:19:50;;;;;;;18.45;10.48;;;0.20;2201.60;;;;;;6186729;23;20075;-95
2022/01/22 15:22:17;;;;;;;7.93;5.68;;;0.10;2201.60;;;;;;6185345;23;20001;-93
2022/01/22 15:24:51;;;;;;;11.93;7.30;;;0.10;2201.60;;;;;;6210278;23;20445;-94
2022/01/22 15:27:18;;;;;;;20.20;7.40;;;0.20;2201.60;;;;;;6212555;23;20428;-95
2022/01/22 15:29:57;;;;;;;12.27;9.45;;;0.00;2201.60;;;;;;6211590;23;20092;-96
2022/01/22 15:32:45;;;;;;;15.30;8.63;;;13.00;2201.60;;;;;;6210768;23;20009;-95
2022/01/22 15:35:13;;;;;;;12.93;7.10;;;13.00;2201.60;;;;;;6211016;23;20071;-95
2022/01/22 15:37:47;;;;;;;19.38;9.18;;;13.10;2201.60;;;;;;6221277;23;20100;-96
2022/01/22 15:40:13;;;;;;;24.20;16.27;;;13.10;2201.60;;;;;;6230516;23;19996;-95
2022/01/22 15:42:39;;;;;;;33.80;15.07;;;13.00;2201.60;;;;;;6195232;23;20012;-94
2022/01/22 15:45:06;;;;;;;38.42;20.77;;;13.00;2201.60;;;;;;6192378;23;20005;-94
2022/01/22 15:47:31;;;;;;;27.27;10.52;;;13.00;2201.60;;;;;;6191637;23;20005;-95
2022/01/22 15:49:58;;;;;;;21.27;10.45;;;13.00;2201.60;;;;;;6194747;23;20020;-96
2022/01/22 15:52:26;;;;;;;35.75;22.50;;;13.00;2201.60;;;;;;6191866;23;20049;-96
2022/01/22 15:54:52;;;;;;;27.55;18.75;;;12.90;2201.60;;;;;;6192667;23;20476;-96
2022/01/22 15:57:19;;;;;;;56.13;24.65;;;12.90;2201.60;;;;;;6186887;23;19997;-94
2022/01/22 15:59:46;;;;;;;22.85;12.32;;;12.90;2201.60;;;;;;6186020;23;20001;-94